CheckWX is a tool to help pilots better visualize weather data.  It is not intended as a substitute for an official pre-flight weather briefing.

07:41:45 UTC

CYBK TAF
Baker Lake Airport
Baker Lake, Canada
TAF CYBK 190538Z 1906/1918 01015KT P6SM BKN080 RMK NXT FCST BY 191200Z

Jun-19@
06:00 UTC

Jun-19 @ 06:00 UTC

Jun-19@
18:00 UTC

Jun-19 @ 18:00 UTC

TAF CYBK 190538Z 1906/1918 01015KT P6SM BKN080 RMK NXT FCST BY 191200Z
Wind
  • 010° at 15 KTS
Cloud Levels
  • Broken at 8,000' AGL